Time;durP1;ratioP1;P1;durP2;ratioP2;P2;SDS_P1;SDS_P2;PMS_P1;PMS_P2;Temp;Humidity;BMP_temperature;BMP_pressure;BME280_temperature;BME280_humidity;BME280_pressure;Samples;Min_cycle;Max_cycle;Signal;HPM_P1;HPM_P2
2024/01/11 00:02:13;;;;;;;10.02;8.18;;;16.10;47.80;;;;;;5113547;28;20263;-61
2024/01/11 00:04:40;;;;;;;9.25;7.65;;;16.10;47.80;;;;;;5113328;28;20177;-61
2024/01/11 00:07:05;;;;;;;8.77;7.53;;;16.10;47.80;;;;;;5112683;28;20229;-62
2024/01/11 00:09:31;;;;;;;8.95;7.68;;;16.00;47.70;;;;;;5113277;28;20256;-63
2024/01/11 00:11:56;;;;;;;8.88;7.93;;;16.00;48.40;;;;;;5113520;28;20647;-63
2024/01/11 00:14:22;;;;;;;9.50;8.27;;;16.00;47.80;;;;;;5112292;28;20718;-62
2024/01/11 00:16:47;;;;;;;9.13;8.18;;;16.00;47.70;;;;;;5113208;28;20989;-62
2024/01/11 00:19:13;;;;;;;8.45;7.65;;;15.90;47.70;;;;;;5113198;28;20311;-62
2024/01/11 00:21:38;;;;;;;9.00;7.68;;;15.90;47.70;;;;;;5112304;28;20627;-62
2024/01/11 00:24:04;;;;;;;9.68;8.30;;;15.90;47.80;;;;;;5113045;28;20636;-61
2024/01/11 00:26:30;;;;;;;9.02;8.13;;;15.90;47.70;;;;;;5113021;28;20177;-62
2024/01/11 00:28:55;;;;;;;11.18;7.97;;;15.90;47.80;;;;;;5112275;28;20211;-62
2024/01/11 00:31:21;;;;;;;9.73;8.13;;;15.80;47.60;;;;;;5112981;28;20173;-62
2024/01/11 00:33:46;;;;;;;10.15;8.13;;;15.80;47.70;;;;;;5112923;28;20201;-62
2024/01/11 00:36:18;;;;;;;9.02;8.13;;;15.80;47.70;;;;;;5112168;28;20697;-62
2024/01/11 00:38:44;;;;;;;9.43;8.20;;;15.70;47.60;;;;;;5113134;28;20231;-63
2024/01/11 00:41:09;;;;;;;8.45;7.55;;;15.70;47.70;;;;;;5112266;28;20169;-63
2024/01/11 00:43:35;;;;;;;8.43;7.60;;;15.70;47.60;;;;;;5111836;28;20508;-63
2024/01/11 00:46:00;;;;;;;8.52;7.63;;;15.70;47.60;;;;;;5112675;28;20663;-63
2024/01/11 00:48:26;;;;;;;9.77;8.70;;;15.70;47.60;;;;;;5112350;28;20181;-62
2024/01/11 00:50:51;;;;;;;9.20;7.55;;;15.60;47.50;;;;;;5111948;28;20194;-62
2024/01/11 00:53:17;;;;;;;8.98;7.20;;;15.60;47.50;;;;;;5112463;28;20180;-62
2024/01/11 00:55:43;;;;;;;8.43;7.38;;;15.60;47.50;;;;;;5112763;28;20183;-62
2024/01/11 00:58:08;;;;;;;9.48;8.00;;;15.60;47.50;;;;;;5111929;28;20689;-62
2024/01/11 01:00:34;;;;;;;8.68;7.78;;;15.60;47.40;;;;;;5112418;28;20623;-65
2024/01/11 01:02:59;;;;;;;8.80;7.53;;;15.60;47.40;;;;;;5111873;28;20181;-62
2024/01/11 01:05:25;;;;;;;8.63;7.68;;;15.50;47.40;;;;;;5112151;28;20165;-61
2024/01/11 01:07:50;;;;;;;8.32;7.25;;;15.50;47.40;;;;;;5112730;28;20226;-62
2024/01/11 01:10:16;;;;;;;7.85;7.05;;;15.40;47.30;;;;;;5111471;28;20898;-61
2024/01/11 01:12:41;;;;;;;9.18;7.80;;;15.50;47.40;;;;;;5112362;28;20204;-62
2024/01/11 01:15:07;;;;;;;8.27;7.28;;;15.40;47.20;;;;;;5112293;28;20295;-62
2024/01/11 01:17:33;;;;;;;9.13;7.90;;;15.40;47.30;;;;;;5111440;28;20268;-62
2024/01/11 01:19:58;;;;;;;9.48;7.90;;;15.40;47.40;;;;;;5112281;28;20204;-62
2024/01/11 01:22:24;;;;;;;9.63;8.38;;;15.40;47.30;;;;;;5111995;28;20252;-62
2024/01/11 01:24:49;;;;;;;8.45;7.55;;;15.40;47.30;;;;;;5111789;28;20169;-62
2024/01/11 01:27:16;;;;;;;8.48;7.43;;;15.40;47.30;;;;;;5111885;28;20177;-63
2024/01/11 01:29:41;;;;;;;9.30;8.30;;;15.30;47.20;;;;;;5112242;28;20228;-61
2024/01/11 01:32:07;;;;;;;8.75;7.70;;;15.30;47.20;;;;;;5111591;28;20176;-62
2024/01/11 01:34:32;;;;;;;9.35;7.88;;;15.30;47.20;;;;;;5111488;28;20295;-62
2024/01/11 01:36:58;;;;;;;8.40;7.55;;;15.30;47.20;;;;;;5112459;28;20196;-65
2024/01/11 01:39:23;;;;;;;8.63;7.70;;;15.30;47.20;;;;;;5111370;28;20176;-64
2024/01/11 01:41:49;;;;;;;7.85;6.88;;;15.30;47.20;;;;;;5112179;28;20196;-64
2024/01/11 01:44:14;;;;;;;8.45;7.47;;;15.20;47.10;;;;;;5111943;28;20553;-65
2024/01/11 01:46:40;;;;;;;9.02;7.97;;;15.20;47.10;;;;;;5111333;28;20621;-64
2024/01/11 01:49:05;;;;;;;8.77;7.88;;;15.20;47.80;;;;;;5111986;28;20181;-64
2024/01/11 01:51:31;;;;;;;9.20;8.15;;;15.20;47.10;;;;;;5112794;28;20184;-64
2024/01/11 01:53:57;;;;;;;10.13;7.72;;;15.20;47.20;;;;;;5115456;28;20208;-64
2024/01/11 01:56:22;;;;;;;8.38;7.57;;;15.10;47.00;;;;;;5097503;28;20201;-64
2024/01/11 01:58:48;;;;;;;9.43;7.75;;;15.10;47.00;;;;;;5115938;28;20204;-64
2024/01/11 02:01:14;;;;;;;8.32;7.45;;;15.10;47.00;;;;;;5114935;28;20181;-63
2024/01/11 02:03:39;;;;;;;8.65;7.45;;;15.10;47.00;;;;;;5097591;28;20293;-64
2024/01/11 02:06:05;;;;;;;9.50;7.68;;;15.10;47.10;;;;;;5080999;28;20199;-64
2024/01/11 02:08:30;;;;;;;9.63;8.52;;;15.10;47.00;;;;;;5096761;28;20195;-64
2024/01/11 02:10:56;;;;;;;9.30;8.32;;;15.00;47.10;;;;;;5080778;28;20256;-64
2024/01/11 02:13:22;;;;;;;9.25;7.93;;;15.00;47.00;;;;;;5079745;28;20258;-64
2024/01/11 02:15:47;;;;;;;8.52;7.45;;;15.00;46.90;;;;;;5115684;28;20177;-63
2024/01/11 02:18:13;;;;;;;8.30;7.50;;;15.00;47.00;;;;;;5115561;28;20256;-64
2024/01/11 02:20:38;;;;;;;9.70;8.05;;;15.00;47.00;;;;;;5114937;28;20180;-64
2024/01/11 02:23:06;;;;;;;9.18;8.18;;;15.00;46.90;;;;;;5097583;28;20165;-63
2024/01/11 02:25:31;;;;;;;8.80;7.45;;;14.90;46.90;;;;;;5097321;28;20181;-63
2024/01/11 02:27:57;;;;;;;8.30;7.30;;;15.00;47.00;;;;;;5114584;28;20584;-63
2024/01/11 02:30:22;;;;;;;9.82;8.13;;;14.90;46.90;;;;;;5114992;28;20188;-64
2024/01/11 02:32:48;;;;;;;7.93;7.13;;;14.90;46.90;;;;;;5115208;28;20184;-64
2024/01/11 02:35:17;;;;;;;8.85;7.95;;;14.90;46.90;;;;;;5114227;28;20242;-64
2024/01/11 02:37:43;;;;;;;7.78;7.05;;;14.90;46.90;;;;;;5115355;28;20177;-65
2024/01/11 02:40:09;;;;;;;8.00;6.85;;;14.90;47.00;;;;;;5096919;28;20173;-62
2024/01/11 02:42:35;;;;;;;8.68;7.70;;;14.80;46.90;;;;;;5114276;28;20180;-65
2024/01/11 02:45:01;;;;;;;9.35;7.65;;;14.80;46.90;;;;;;5115116;28;20173;-65
2024/01/11 02:47:27;;;;;;;9.65;7.72;;;14.80;46.90;;;;;;5096511;28;20220;-64
2024/01/11 02:49:52;;;;;;;8.40;7.32;;;14.80;47.50;;;;;;5114133;28;20662;-64
2024/01/11 02:52:18;;;;;;;8.57;7.57;;;14.80;46.90;;;;;;5114853;28;20268;-64
2024/01/11 02:54:43;;;;;;;8.00;7.18;;;14.80;46.90;;;;;;5114908;28;20219;-64
2024/01/11 02:57:09;;;;;;;8.82;7.60;;;14.80;46.90;;;;;;5114059;28;20216;-63
2024/01/11 02:59:34;;;;;;;9.13;8.23;;;14.70;46.90;;;;;;5114535;28;20174;-64
2024/01/11 03:02:00;;;;;;;8.30;7.47;;;14.70;46.80;;;;;;5114833;28;20260;-64
2024/01/11 03:04:25;;;;;;;9.35;7.40;;;14.70;46.90;;;;;;5094466;28;20690;-64
2024/01/11 03:06:51;;;;;;;8.13;7.25;;;14.70;46.80;;;;;;5114750;28;20605;-64
2024/01/11 03:09:16;;;;;;;10.10;8.00;;;14.70;46.90;;;;;;5114294;28;20271;-64
2024/01/11 03:11:42;;;;;;;7.75;6.95;;;14.70;46.80;;;;;;5113963;28;20265;-63
2024/01/11 03:14:07;;;;;;;9.35;7.20;;;14.70;46.90;;;;;;5114375;28;20205;-64
2024/01/11 03:16:33;;;;;;;9.75;7.93;;;14.70;46.90;;;;;;5113444;28;20180;-64
2024/01/11 03:18:58;;;;;;;9.30;7.50;;;14.60;46.80;;;;;;5114646;28;20540;-64
2024/01/11 03:21:24;;;;;;;9.25;8.20;;;14.60;46.90;;;;;;5114236;28;20181;-63
2024/01/11 03:23:49;;;;;;;7.97;7.18;;;14.60;46.90;;;;;;5113778;28;20169;-63
2024/01/11 03:26:18;;;;;;;8.20;7.40;;;14.60;46.90;;;;;;5114057;28;20176;-63
2024/01/11 03:28:43;;;;;;;8.15;7.22;;;14.60;46.90;;;;;;5114199;28;20183;-63
2024/01/11 03:31:12;;;;;;;8.57;7.68;;;14.60;46.90;;;;;;5113463;28;20530;-64
2024/01/11 03:33:37;;;;;;;7.90;7.10;;;14.60;46.80;;;;;;5113998;28;20205;-64
2024/01/11 03:36:09;;;;;;;8.73;7.75;;;14.60;47.50;;;;;;5114162;28;20524;-64
2024/01/11 03:38:35;;;;;;;8.93;8.02;;;14.50;46.80;;;;;;5113166;28;20184;-64
2024/01/11 03:41:00;;;;;;;7.95;7.07;;;14.50;46.80;;;;;;5113934;28;20173;-64
2024/01/11 03:43:26;;;;;;;8.57;7.55;;;14.50;46.80;;;;;;5113568;28;20177;-65
2024/01/11 03:45:51;;;;;;;8.13;7.32;;;14.50;46.70;;;;;;5113106;28;20170;-64
2024/01/11 03:48:17;;;;;;;9.32;8.02;;;14.50;46.80;;;;;;5113505;28;20188;-64
2024/01/11 03:50:45;;;;;;;8.05;7.25;;;14.50;46.90;;;;;;5113686;28;20263;-64
2024/01/11 03:53:11;;;;;;;8.40;7.18;;;14.40;46.80;;;;;;5113120;28;20241;-64
2024/01/11 03:55:36;;;;;;;8.38;7.47;;;14.40;46.90;;;;;;5113341;28;20221;-64
2024/01/11 03:58:02;;;;;;;8.43;7.60;;;14.40;46.90;;;;;;5113512;28;20266;-63
2024/01/11 04:00:33;;;;;;;8.77;7.88;;;14.40;46.90;;;;;;5112407;28;20173;-63
2024/01/11 04:02:59;;;;;;;9.82;8.10;;;14.70;47.10;;;;;;5113800;28;20180;-64
2024/01/11 04:05:24;;;;;;;8.10;7.30;;;14.40;47.00;;;;;;5113332;28;20169;-64
2024/01/11 04:07:50;;;;;;;8.13;7.32;;;14.40;46.80;;;;;;5112652;28;20180;-64
2024/01/11 04:10:17;;;;;;;8.43;7.50;;;14.40;47.00;;;;;;5113193;28;20218;-64
2024/01/11 04:12:42;;;;;;;8.45;7.60;;;14.40;47.00;;;;;;5113386;28;20184;-64
2024/01/11 04:15:11;;;;;;;7.93;7.13;;;14.30;47.00;;;;;;5112448;28;20617;-64
2024/01/11 04:17:38;;;;;;;8.52;7.25;;;14.30;47.00;;;;;;5113122;28;20176;-64
2024/01/11 04:20:04;;;;;;;9.00;8.02;;;14.30;47.00;;;;;;5112399;28;20185;-64
2024/01/11 04:22:30;;;;;;;8.55;7.72;;;14.30;47.00;;;;;;5112880;28;20521;-63
2024/01/11 04:24:55;;;;;;;8.55;7.18;;;14.30;47.00;;;;;;5113166;28;20666;-63
2024/01/11 04:27:21;;;;;;;8.45;7.65;;;14.30;47.10;;;;;;5112078;28;20177;-63
2024/01/11 04:29:46;;;;;;;9.25;8.27;;;14.30;47.10;;;;;;5113008;28;20177;-63
2024/01/11 04:32:12;;;;;;;9.45;7.70;;;14.30;47.10;;;;;;5113222;28;20592;-64
2024/01/11 04:34:37;;;;;;;9.00;8.10;;;14.30;47.00;;;;;;5111932;28;20204;-64
2024/01/11 04:37:03;;;;;;;9.10;8.20;;;14.20;47.20;;;;;;5113040;28;20169;-65
2024/01/11 04:39:28;;;;;;;8.73;7.82;;;14.20;47.00;;;;;;5112569;28;20179;-65
2024/01/11 04:41:54;;;;;;;8.85;7.95;;;14.20;47.20;;;;;;5112111;28;20256;-65
2024/01/11 04:44:19;;;;;;;8.23;7.18;;;14.20;47.20;;;;;;5112515;28;20180;-65
2024/01/11 04:46:45;;;;;;;8.63;7.38;;;14.20;47.20;;;;;;5112974;28;20651;-65
2024/01/11 04:49:10;;;;;;;9.07;8.18;;;14.20;47.20;;;;;;5093886;28;20636;-64
2024/01/11 04:51:36;;;;;;;8.70;7.82;;;14.20;47.10;;;;;;5112465;28;20183;-65
2024/01/11 04:54:01;;;;;;;8.52;7.57;;;14.20;47.10;;;;;;5112740;28;20813;-64
2024/01/11 04:56:29;;;;;;;8.75;7.85;;;14.10;47.20;;;;;;5111683;28;20636;-64
2024/01/11 04:58:55;;;;;;;8.60;7.68;;;14.10;47.10;;;;;;5112760;28;20189;-64
2024/01/11 05:01:21;;;;;;;8.30;7.43;;;14.10;47.30;;;;;;5112243;28;20727;-64
2024/01/11 05:03:47;;;;;;;9.35;8.38;;;14.10;47.30;;;;;;5111855;28;20256;-64
2024/01/11 05:06:19;;;;;;;8.40;7.60;;;14.10;47.20;;;;;;5112607;28;20628;-64
2024/01/11 05:08:46;;;;;;;8.70;7.80;;;14.10;47.30;;;;;;5112534;28;20165;-64
2024/01/11 05:11:21;;;;;;;9.32;8.27;;;14.10;47.40;;;;;;5111597;28;20681;-64
2024/01/11 05:13:48;;;;;;;8.57;7.63;;;14.10;47.40;;;;;;5112560;28;20253;-64
2024/01/11 05:16:24;;;;;;;8.48;7.63;;;14.10;47.40;;;;;;5111691;28;20656;-64
2024/01/11 05:18:53;;;;;;;9.30;8.40;;;14.10;47.40;;;;;;5112560;28;20184;-64
2024/01/11 05:21:19;;;;;;;9.20;8.30;;;14.00;47.30;;;;;;5111988;28;20549;-63
2024/01/11 05:23:45;;;;;;;9.30;8.23;;;14.00;47.30;;;;;;5111602;28;20169;-63
2024/01/11 05:26:10;;;;;;;9.50;8.50;;;14.00;47.30;;;;;;5112988;28;20716;-63
2024/01/11 05:28:36;;;;;;;10.27;8.48;;;14.00;47.40;;;;;;5116403;28;20181;-63
2024/01/11 05:31:01;;;;;;;10.55;8.00;;;14.00;47.40;;;;;;5115927;28;20177;-63
2024/01/11 05:33:27;;;;;;;8.82;8.00;;;14.00;47.50;;;;;;5116120;28;20177;-64
2024/01/11 05:35:53;;;;;;;8.73;7.82;;;14.00;47.30;;;;;;5116415;28;20637;-64
2024/01/11 05:38:19;;;;;;;9.55;8.50;;;13.90;47.30;;;;;;5115455;28;20177;-64
2024/01/11 05:40:45;;;;;;;8.95;7.70;;;14.00;47.50;;;;;;5116518;28;20169;-64
2024/01/11 05:43:10;;;;;;;8.40;7.60;;;13.90;47.40;;;;;;5116343;28;20173;-65
2024/01/11 05:45:36;;;;;;;8.40;7.53;;;13.90;47.60;;;;;;5115459;28;20234;-64
2024/01/11 05:48:01;;;;;;;8.65;7.75;;;13.90;47.60;;;;;;5116317;28;20546;-64
2024/01/11 05:50:27;;;;;;;9.05;8.15;;;13.90;47.70;;;;;;5115886;28;20512;-63
2024/01/11 05:52:54;;;;;;;8.70;7.80;;;14.30;47.90;;;;;;5115445;28;20260;-63
2024/01/11 05:55:20;;;;;;;9.15;8.20;;;14.00;47.50;;;;;;5115792;28;20216;-63
2024/01/11 05:57:45;;;;;;;8.88;7.97;;;14.10;47.30;;;;;;5115919;28;20229;-63
2024/01/11 06:00:11;;;;;;;8.32;7.53;;;14.20;47.00;;;;;;5115365;28;20246;-63
2024/01/11 06:02:37;;;;;;;9.05;8.15;;;14.30;47.60;;;;;;5115675;28;20654;-63
2024/01/11 06:05:03;;;;;;;8.43;7.18;;;14.40;47.00;;;;;;5115840;28;20201;-64
2024/01/11 06:07:29;;;;;;;8.48;7.68;;;14.50;46.90;;;;;;5114787;28;20169;-63
2024/01/11 06:09:54;;;;;;;7.22;6.53;;;14.60;47.00;;;;;;5115983;28;20224;-64
2024/01/11 06:12:20;;;;;;;7.45;6.75;;;14.70;46.90;;;;;;5115510;28;20165;-64
2024/01/11 06:14:46;;;;;;;9.57;7.63;;;14.90;46.80;;;;;;5115310;28;20220;-63
2024/01/11 06:17:11;;;;;;;8.27;7.40;;;15.00;46.50;;;;;;5115720;28;20537;-64
2024/01/11 06:19:38;;;;;;;7.88;7.07;;;15.20;46.30;;;;;;5114646;28;20173;-63
2024/01/11 06:22:04;;;;;;;8.00;7.20;;;15.30;46.20;;;;;;5115464;28;20634;-63
2024/01/11 06:24:29;;;;;;;7.97;7.18;;;15.40;46.10;;;;;;5115426;28;20177;-63
2024/01/11 06:26:55;;;;;;;8.23;7.43;;;15.40;45.90;;;;;;5114207;28;20180;-63
2024/01/11 06:29:20;;;;;;;7.03;6.43;;;15.50;45.90;;;;;;5115125;28;20169;-63
2024/01/11 06:31:46;;;;;;;7.78;6.63;;;15.50;45.90;;;;;;5115449;28;20214;-64
2024/01/11 06:34:11;;;;;;;8.18;7.03;;;15.50;45.90;;;;;;5114601;28;20193;-64
2024/01/11 06:36:37;;;;;;;8.23;7.43;;;15.50;45.80;;;;;;5114916;28;20606;-64
2024/01/11 06:39:03;;;;;;;7.60;6.68;;;15.50;45.80;;;;;;5114164;28;20246;-64
2024/01/11 06:41:29;;;;;;;7.88;7.10;;;15.50;45.80;;;;;;5114387;28;20181;-65
2024/01/11 06:43:55;;;;;;;8.27;7.47;;;15.50;45.80;;;;;;5115183;28;20173;-65
2024/01/11 06:46:23;;;;;;;7.53;6.80;;;15.50;45.80;;;;;;5114838;28;20179;-64
2024/01/11 06:48:49;;;;;;;8.95;7.72;;;15.50;45.80;;;;;;5114284;28;20255;-64
2024/01/11 06:51:20;;;;;;;7.90;6.80;;;15.60;45.80;;;;;;5114577;28;20187;-64
2024/01/11 06:53:46;;;;;;;7.43;6.68;;;15.70;45.70;;;;;;5115150;28;20246;-66
2024/01/11 06:56:15;;;;;;;7.60;6.85;;;15.90;45.70;;;;;;5114434;28;20545;-64
2024/01/11 06:58:41;;;;;;;7.25;6.55;;;16.00;45.50;;;;;;5114748;28;20715;-66
2024/01/11 07:01:06;;;;;;;7.43;6.65;;;16.10;45.40;;;;;;5114757;28;20211;-63
2024/01/11 07:03:32;;;;;;;8.07;7.13;;;16.20;45.30;;;;;;5113656;28;20647;-63
2024/01/11 07:05:57;;;;;;;7.00;6.30;;;16.30;45.20;;;;;;5114458;28;20177;-63
2024/01/11 07:08:23;;;;;;;7.22;6.53;;;16.30;45.20;;;;;;5114364;28;20161;-64
2024/01/11 07:10:48;;;;;;;7.63;6.93;;;16.40;45.10;;;;;;5114070;28;20263;-64
2024/01/11 07:13:16;;;;;;;7.80;6.82;;;16.40;45.10;;;;;;5114128;28;20651;-64
2024/01/11 07:15:42;;;;;;;7.10;6.40;;;16.40;45.00;;;;;;5113864;28;20213;-63
2024/01/11 07:18:07;;;;;;;6.97;6.28;;;16.50;45.00;;;;;;5114352;28;20183;-64
2024/01/11 07:20:33;;;;;;;7.20;6.50;;;16.50;45.00;;;;;;5114065;28;20177;-64
2024/01/11 07:22:59;;;;;;;7.55;6.82;;;16.50;45.00;;;;;;5113875;28;20177;-63
2024/01/11 07:25:25;;;;;;;7.10;6.40;;;16.60;44.90;;;;;;5114257;28;20604;-63
2024/01/11 07:27:50;;;;;;;8.02;7.22;;;16.60;44.80;;;;;;5114467;28;20197;-63
2024/01/11 07:30:18;;;;;;;7.65;6.85;;;16.50;44.80;;;;;;5113285;28;20177;-63
2024/01/11 07:32:44;;;;;;;7.57;6.13;;;16.60;44.80;;;;;;5114111;28;20173;-65
2024/01/11 07:35:10;;;;;;;7.38;6.68;;;16.60;44.90;;;;;;5114053;28;20254;-64
2024/01/11 07:37:36;;;;;;;8.40;7.55;;;16.60;44.80;;;;;;5113217;28;20169;-64
2024/01/11 07:40:02;;;;;;;7.47;6.78;;;16.60;44.80;;;;;;5114139;28;20173;-65
2024/01/11 07:42:28;;;;;;;7.75;6.95;;;16.60;44.80;;;;;;5113673;28;20644;-64
2024/01/11 07:44:53;;;;;;;8.07;7.28;;;16.40;44.90;;;;;;5113039;28;20226;-64
2024/01/11 07:47:19;;;;;;;7.28;6.43;;;16.40;45.00;;;;;;5113426;28;20260;-64
2024/01/11 07:49:44;;;;;;;7.43;6.72;;;16.30;45.20;;;;;;5113353;28;20306;-64
2024/01/11 07:52:10;;;;;;;7.28;6.50;;;16.40;45.20;;;;;;5113287;28;20256;-63
2024/01/11 07:54:35;;;;;;;8.73;6.82;;;16.40;45.20;;;;;;5113447;28;20289;-63
2024/01/11 07:57:02;;;;;;;7.15;6.45;;;16.50;45.10;;;;;;5113504;28;20699;-63
2024/01/11 07:59:32;;;;;;;7.32;6.63;;;16.60;45.00;;;;;;5112608;28;20176;-63
2024/01/11 08:01:57;;;;;;;7.30;6.60;;;16.70;45.10;;;;;;5113645;28;20193;-63
2024/01/11 08:04:23;;;;;;;7.55;6.80;;;16.70;44.80;;;;;;5112307;28;20188;-63
2024/01/11 08:06:48;;;;;;;7.43;6.72;;;16.80;44.80;;;;;;5112908;28;20640;-63
2024/01/11 08:09:14;;;;;;;8.35;7.45;;;16.80;44.70;;;;;;5113120;28;20226;-64
2024/01/11 08:11:41;;;;;;;7.82;7.03;;;16.90;44.60;;;;;;5113269;28;20173;-64
2024/01/11 08:14:07;;;;;;;6.90;6.20;;;16.80;44.60;;;;;;5112607;28;20683;-63
2024/01/11 08:16:32;;;;;;;7.82;6.88;;;16.90;44.80;;;;;;5112959;28;20207;-64
2024/01/11 08:18:58;;;;;;;7.15;6.45;;;16.90;45.40;;;;;;5112914;28;20172;-63
2024/01/11 08:21:24;;;;;;;8.20;7.38;;;16.90;44.80;;;;;;5112735;28;20685;-64
2024/01/11 08:23:50;;;;;;;7.47;6.78;;;16.90;44.70;;;;;;5113246;28;20204;-63
2024/01/11 08:26:15;;;;;;;7.68;6.90;;;16.80;44.70;;;;;;5112154;28;20196;-62
2024/01/11 08:28:41;;;;;;;7.28;6.57;;;16.90;44.80;;;;;;5113226;28;20611;-63
2024/01/11 08:31:07;;;;;;;7.03;6.22;;;16.90;44.90;;;;;;5112945;28;20212;-64
2024/01/11 08:33:33;;;;;;;7.10;6.40;;;16.90;45.00;;;;;;5112161;28;20201;-64
2024/01/11 08:35:58;;;;;;;7.13;6.43;;;16.90;45.00;;;;;;5113159;28;20177;-62
2024/01/11 08:38:24;;;;;;;7.03;6.43;;;16.90;45.20;;;;;;5112731;28;20204;-62
2024/01/11 08:40:50;;;;;;;7.50;6.80;;;16.80;45.40;;;;;;5112301;28;20181;-62
2024/01/11 08:43:15;;;;;;;8.73;6.88;;;16.80;45.50;;;;;;5112617;28;20210;-64
2024/01/11 08:45:43;;;;;;;8.68;6.72;;;16.80;45.80;;;;;;5112761;28;20595;-64
2024/01/11 08:48:09;;;;;;;9.27;6.97;;;16.80;46.00;;;;;;5111984;28;20177;-66
2024/01/11 08:50:35;;;;;;;8.45;6.82;;;16.80;46.00;;;;;;5112257;28;20640;-66
2024/01/11 08:53:00;;;;;;;8.20;7.28;;;16.90;46.00;;;;;;5112804;28;20177;-66
2024/01/11 08:55:26;;;;;;;8.43;7.30;;;16.90;46.00;;;;;;5111630;28;20611;-66
2024/01/11 08:57:52;;;;;;;8.00;7.13;;;16.90;46.00;;;;;;5112490;28;20680;-65
2024/01/11 09:00:18;;;;;;;7.28;6.57;;;16.90;46.10;;;;;;5112244;28;20195;-66
2024/01/11 09:02:46;;;;;;;7.22;6.53;;;16.90;45.90;;;;;;5111436;28;20192;-66
2024/01/11 09:05:14;;;;;;;8.23;7.38;;;16.90;45.90;;;;;;5112394;28;20173;-66
2024/01/11 09:07:39;;;;;;;8.00;7.20;;;16.90;45.90;;;;;;5112562;28;20177;-67
2024/01/11 09:10:08;;;;;;;8.30;7.00;;;16.90;46.00;;;;;;5111873;28;20222;-66
2024/01/11 09:12:34;;;;;;;7.53;6.82;;;16.90;46.00;;;;;;5112204;28;20577;-66
2024/01/11 09:14:59;;;;;;;7.35;6.63;;;16.80;46.00;;;;;;5112304;28;20236;-66
2024/01/11 09:17:25;;;;;;;7.78;7.07;;;16.80;46.10;;;;;;5111378;28;20184;-66
2024/01/11 09:19:51;;;;;;;8.15;7.18;;;16.70;46.20;;;;;;5112390;28;20188;-66
2024/01/11 09:22:17;;;;;;;7.90;7.20;;;16.70;46.30;;;;;;5111377;28;20623;-66
2024/01/11 09:24:42;;;;;;;7.82;7.03;;;16.70;46.40;;;;;;5112304;28;20213;-66
2024/01/11 09:27:08;;;;;;;7.53;6.82;;;16.70;46.50;;;;;;5112428;28;20260;-66
2024/01/11 09:29:33;;;;;;;7.85;6.88;;;16.70;47.10;;;;;;5111237;28;20263;-66
2024/01/11 09:31:59;;;;;;;7.68;6.82;;;16.80;46.50;;;;;;5112253;28;20203;-65
2024/01/11 09:34:25;;;;;;;8.23;7.05;;;16.80;47.20;;;;;;5112098;28;20209;-66
2024/01/11 09:36:50;;;;;;;7.15;6.45;;;16.80;46.60;;;;;;5111733;28;20623;-67
2024/01/11 09:39:16;;;;;;;8.13;7.28;;;16.80;46.70;;;;;;5112015;28;20622;-67
2024/01/11 09:41:45;;;;;;;7.88;7.18;;;16.70;46.60;;;;;;5112243;28;20181;-66
2024/01/11 09:44:11;;;;;;;8.77;7.45;;;16.70;46.70;;;;;;5093271;28;20198;-65
2024/01/11 09:46:36;;;;;;;7.78;6.95;;;16.60;46.70;;;;;;5112068;28;20173;-66
2024/01/11 09:49:03;;;;;;;7.95;7.15;;;16.60;46.90;;;;;;5094191;28;20169;-67
2024/01/11 09:51:29;;;;;;;7.95;7.00;;;16.50;47.10;;;;;;5111185;28;20178;-66
2024/01/11 09:53:55;;;;;;;7.80;7.03;;;16.40;47.20;;;;;;5093926;28;20685;-66
2024/01/11 09:56:21;;;;;;;7.40;6.70;;;16.40;47.20;;;;;;5076879;28;20234;-65
2024/01/11 09:58:50;;;;;;;7.53;6.30;;;16.40;47.40;;;;;;5111344;28;20583;-67
2024/01/11 10:01:16;;;;;;;8.45;7.28;;;16.40;47.40;;;;;;5111717;28;20636;-66
2024/01/11 10:03:42;;;;;;;7.03;6.32;;;16.30;47.40;;;;;;5112144;28;20181;-66
2024/01/11 10:06:09;;;;;;;8.30;7.50;;;16.30;47.40;;;;;;5111278;28;20186;-67
2024/01/11 10:08:35;;;;;;;8.05;7.28;;;16.30;47.40;;;;;;5093776;28;20246;-66
2024/01/11 10:11:00;;;;;;;7.20;6.50;;;16.30;47.30;;;;;;5112053;28;20181;-67
2024/01/11 10:13:29;;;;;;;7.57;6.70;;;16.30;47.40;;;;;;5113224;28;20360;-66
2024/01/11 10:16:13;;;;;;;7.53;6.75;;;16.30;47.40;;;;;;5115799;28;20337;-65
2024/01/11 10:18:39;;;;;;;7.22;6.53;;;16.30;47.30;;;;;;5114987;28;20180;-66
2024/01/11 10:21:05;;;;;;;7.90;7.10;;;16.30;47.20;;;;;;5115570;28;20169;-66
2024/01/11 10:23:33;;;;;;;7.57;6.88;;;16.30;47.20;;;;;;5115199;28;20173;-66
2024/01/11 10:25:59;;;;;;;7.65;6.43;;;16.30;47.20;;;;;;5096750;28;20177;-65
2024/01/11 10:28:26;;;;;;;8.02;7.25;;;16.30;47.30;;;;;;5115069;28;20632;-65
2024/01/11 10:30:55;;;;;;;7.93;7.13;;;16.20;47.40;;;;;;5115516;28;20177;-65
2024/01/11 10:33:21;;;;;;;7.35;6.65;;;16.20;47.70;;;;;;5114394;28;20195;-66
2024/01/11 10:35:48;;;;;;;7.93;7.13;;;16.10;48.00;;;;;;5114353;28;20867;-67
2024/01/11 10:38:14;;;;;;;7.65;6.65;;;16.10;48.00;;;;;;5115478;28;20530;-66
2024/01/11 10:40:40;;;;;;;8.13;6.13;;;16.10;48.00;;;;;;5114434;28;20173;-67
2024/01/11 10:43:05;;;;;;;7.05;6.38;;;16.10;48.10;;;;;;5115216;28;20169;-67
2024/01/11 10:45:31;;;;;;;7.80;6.80;;;16.10;48.20;;;;;;5096622;28;20187;-66
2024/01/11 10:48:07;;;;;;;6.68;6.07;;;16.10;48.10;;;;;;5114425;28;20264;-67
2024/01/11 10:50:34;;;;;;;7.05;6.32;;;16.10;48.00;;;;;;5098202;28;20177;-66
2024/01/11 10:53:04;;;;;;;6.75;6.13;;;16.00;48.00;;;;;;5096745;28;20184;-66
2024/01/11 10:55:36;;;;;;;7.00;6.07;;;16.00;48.00;;;;;;5114081;28;20213;-66
2024/01/11 10:58:02;;;;;;;6.07;5.47;;;16.10;47.90;;;;;;5114750;28;20278;-66
2024/01/11 11:00:28;;;;;;;6.40;5.78;;;16.10;47.90;;;;;;5114666;28;20184;-66
2024/01/11 11:02:55;;;;;;;5.45;4.95;;;16.10;47.80;;;;;;5114040;28;20199;-66
2024/01/11 11:05:20;;;;;;;6.47;5.55;;;16.10;47.80;;;;;;5096243;28;20173;-65
2024/01/11 11:07:48;;;;;;;5.95;5.32;;;16.10;47.70;;;;;;5095957;28;20165;-67
2024/01/11 11:10:13;;;;;;;6.40;5.80;;;16.20;47.70;;;;;;5079637;28;20585;-66
2024/01/11 11:12:39;;;;;;;5.30;4.80;;;16.20;47.70;;;;;;5096429;28;20234;-66
2024/01/11 11:15:06;;;;;;;5.50;5.00;;;16.10;47.70;;;;;;5095781;28;20217;-66
2024/01/11 11:17:31;;;;;;;6.05;5.35;;;16.10;47.60;;;;;;5096224;28;20218;-66
2024/01/11 11:19:57;;;;;;;5.38;4.85;;;16.20;47.70;;;;;;5114424;28;20169;-66
2024/01/11 11:22:22;;;;;;;5.30;4.80;;;16.20;47.60;;;;;;5113556;28;20628;-66
2024/01/11 11:24:48;;;;;;;5.55;5.05;;;16.20;47.60;;;;;;5113718;28;20563;-65
2024/01/11 11:27:14;;;;;;;5.55;5.00;;;16.20;47.60;;;;;;5095856;28;20181;-65
2024/01/11 11:29:40;;;;;;;5.72;5.13;;;16.20;47.60;;;;;;5113735;28;20181;-65
2024/01/11 11:32:05;;;;;;;5.78;5.20;;;16.20;47.60;;;;;;5096052;28;20196;-66
2024/01/11 11:34:46;;;;;;;5.40;4.72;;;16.30;47.60;;;;;;5095606;28;20204;-66
2024/01/11 11:37:12;;;;;;;5.00;4.50;;;16.30;47.60;;;;;;5113624;28;20579;-66
2024/01/11 11:39:37;;;;;;;4.80;4.30;;;16.30;47.60;;;;;;5113873;28;20678;-67
2024/01/11 11:42:04;;;;;;;4.10;3.70;;;16.30;47.60;;;;;;5095673;28;20173;-67
2024/01/11 11:44:30;;;;;;;5.15;4.75;;;16.30;47.60;;;;;;5113011;28;20534;-66
2024/01/11 11:47:16;;;;;;;6.88;5.45;;;16.30;47.50;;;;;;5095602;28;20177;-66
2024/01/11 11:50:07;;;;;;;6.20;5.18;;;16.30;47.40;;;;;;5114048;28;20173;-66
2024/01/11 11:52:42;;;;;;;6.35;5.18;;;16.30;47.20;;;;;;5113568;28;20218;-66
2024/01/11 11:55:08;;;;;;;5.70;5.18;;;16.30;47.10;;;;;;5113668;28;20357;-66
2024/01/11 11:57:34;;;;;;;5.50;4.82;;;16.30;47.10;;;;;;5112375;28;20221;-65
2024/01/11 12:00:02;;;;;;;7.15;5.22;;;16.30;47.00;;;;;;5113884;28;20256;-66
2024/01/11 12:02:27;;;;;;;5.82;5.18;;;16.40;47.00;;;;;;5113480;28;20223;-65
2024/01/11 12:04:53;;;;;;;8.48;5.20;;;16.30;46.90;;;;;;5113018;28;20737;-66
2024/01/11 12:07:20;;;;;;;5.95;4.70;;;16.40;47.00;;;;;;5113344;28;20165;-67
2024/01/11 12:09:46;;;;;;;5.63;4.97;;;16.40;46.90;;;;;;5078497;28;20654;-66
2024/01/11 12:12:11;;;;;;;5.82;5.18;;;16.40;46.90;;;;;;5112647;28;20173;-66
2024/01/11 12:14:37;;;;;;;5.93;5.28;;;16.30;46.80;;;;;;5094964;28;20208;-68
2024/01/11 12:17:03;;;;;;;7.25;5.40;;;16.40;46.90;;;;;;5113525;28;20706;-65
2024/01/11 12:19:29;;;;;;;6.18;4.38;;;16.40;46.90;;;;;;5112394;28;20177;-65
2024/01/11 12:21:54;;;;;;;4.88;4.38;;;16.40;47.00;;;;;;5113278;28;20196;-65
2024/01/11 12:24:21;;;;;;;4.80;4.30;;;16.40;47.10;;;;;;5112932;28;20177;-65
2024/01/11 12:26:47;;;;;;;5.75;4.38;;;16.40;47.10;;;;;;5112376;28;20616;-64
2024/01/11 12:29:13;;;;;;;4.65;4.13;;;16.40;47.20;;;;;;5094866;28;20206;-65
2024/01/11 12:31:38;;;;;;;5.78;4.05;;;16.40;47.20;;;;;;5113201;28;20210;-66
2024/01/11 12:34:04;;;;;;;4.93;4.43;;;16.40;47.20;;;;;;5112124;28;20253;-66
2024/01/11 12:36:29;;;;;;;5.10;4.15;;;16.40;47.20;;;;;;5111847;28;20261;-67
2024/01/11 12:38:55;;;;;;;4.30;3.75;;;16.40;47.20;;;;;;5077730;28;20635;-66
2024/01/11 12:41:21;;;;;;;4.90;4.28;;;16.50;47.40;;;;;;5111671;28;20169;-67